Cap Finistere — FLSO — position and weather

sailwx.info

Track history (hours):
 
Tides and Currents Weather Stations Pressure Air Temp Water Temp Dewpoint Dewpoint Depression Visibility Wind Speed Wind Dir Waves Ship Positions

Cap Finistere

Last reported at 2018-Jun-21 16:49 UTC. Time now 2018-Jun-21 22:03 UTC.
Position N 44°23' W 003°30'.

Length 204 m; draft 6.6 m.

Type: Ship. MMSI: 226318000.

Date/timePositionNaut miles runAvg speedWind from/ knotsBaromVisibWave heightAir tempDewpointWater temp
2018-Jun-21 16:49N 44°23' W 003°30'1225.0
2018-Jun-21 16:20N 44°11' W 003°24'1225.2
2018-Jun-21 15:50N 43°60' W 003°19'1025.3
2018-Jun-21 15:27N 43°50' W 003°16'1125.3
2018-Jun-21 15:01N 43°40' W 003°12'1325.1
2018-Jun-21 14:31N 43°27' W 003°07'713.0
2018-Jun-21 14:00N 43°21' W 003°04'0 0.6
2018-Jun-21 13:30N 43°21' W 003°04'0 0.0
2018-Jun-21 13:00N 43°21' W 003°04'0 0.0
2018-Jun-21 12:30N 43°21' W 003°04'0 0.0
2018-Jun-21 12:00N 43°21' W 003°04'0 0.0
2018-Jun-21 11:30N 43°21' W 003°04'0 0.0
2018-Jun-21 11:00N 43°21' W 003°04'0 0.5
2018-Jun-21 10:30N 43°21' W 003°04'611.5
2018-Jun-21 10:00N 43°27' W 003°07'1223.1
2018-Jun-21 09:30N 43°37' W 003°13'2325.0
2018-Jun-21 08:35N 43°60' W 003°21'225.1
2018-Jun-21 08:30N 44°02' W 003°22'6825.2
2018-Jun-21 05:47N 45°07' W 003°51'725.2
2018-Jun-21 05:30N 45°14' W 003°54'1625.4
2018-Jun-21 04:53N 45°29' W 004°01'1025.6
2018-Jun-21 04:31N 45°38' W 004°05'1325.9
2018-Jun-21 04:01N 45°50' W 004°11'1425.8
2018-Jun-21 03:27N 46°04' W 004°17'1125.5
2018-Jun-21 03:00N 46°15' W 004°22'2325.9
2018-Jun-21 02:07N 46°37' W 004°33'826.3
2018-Jun-21 01:49N 46°44' W 004°35'1126.3
2018-Jun-21 01:24N 46°55' W 004°40'1526.3
2018-Jun-21 00:49N 47°09' W 004°47'5726.6
2018-Jun-20 22:40N 48°04' W 005°12'425.7
2018-Jun-20 22:30N 48°08' W 005°14'1625.6
2018-Jun-20 21:53N 48°23' W 005°21'1021.2
2018-Jun-20 21:24N 48°33' W 005°20'717.3
2018-Jun-20 21:01N 48°38' W 005°13'1121.6
2018-Jun-20 20:31N 48°43' W 004°58'1324.7
2018-Jun-20 20:00N 48°49' W 004°41'7525.2
2018-Jun-20 17:00N 49°42' W 003°20'1425.6
2018-Jun-20 16:29N 49°52' W 003°05'1022.1
2018-Jun-20 16:00N 49°58' W 002°52'5821.2
2018-Jun-20 13:16N 50°25' W 001°31'1120.3
2018-Jun-20 12:44N 50°30' W 001°17'519.6
2018-Jun-20 12:30N 50°32' W 001°11'1019.5
2018-Jun-20 12:00N 50°39' W 000°59'713.8
2018-Jun-20 11:31N 50°45' W 001°05'4 7.7
2018-Jun-20 11:00N 50°49' W 001°06'0 0.0
2018-Jun-20 10:30N 50°49' W 001°06'0 0.0
2018-Jun-20 10:00N 50°49' W 001°06'0 0.0
2018-Jun-20 09:30N 50°49' W 001°06'0 0.0
2018-Jun-20 09:00N 50°49' W 001°06'0 0.0
2018-Jun-20 08:30N 50°49' W 001°06'0 0.2
2018-Jun-20 08:00N 50°49' W 001°06'4 8.5
2018-Jun-20 07:30N 50°45' W 001°04'714.9
2018-Jun-20 07:00N 50°38' W 001°01'1422.3
2018-Jun-20 06:22N 50°28' W 001°18'3323.1
2018-Jun-20 04:56N 50°10' W 002°01'7724.6
2018-Jun-20 01:49N 49°23' W 003°35'2325.1
2018-Jun-20 00:55N 49°07' W 003°60'1425.1
2018-Jun-20 00:21N 48°57' W 004°15'925.1
2018-Jun-19 23:59N 48°51' W 004°25'1225.2
2018-Jun-19 23:30N 48°43' W 004°39'1224.5
2018-Jun-19 23:00N 48°33' W 004°50'816.1
2018-Jun-19 22:31N 48°25' W 004°50'714.8
2018-Jun-19 22:01N 48°18' W 004°47'1223.3
2018-Jun-19 21:31N 48°06' W 004°45'815.2
2018-Jun-19 21:00N 47°59' W 004°44'2924.8
2018-Jun-19 19:51N 47°31' W 004°32'925.0
2018-Jun-19 19:28N 47°22' W 004°29'1225.2
2018-Jun-19 19:01N 47°11' W 004°24'2425.4
2018-Jun-19 18:03N 46°47' W 004°17'125.5
2018-Jun-19 18:00N 46°46' W 004°17'1325.7
2018-Jun-19 17:29N 46°33' W 004°12'1225.9
2018-Jun-19 17:00N 46°21' W 004°08'13924.1
2018-Jun-19 11:16N 44°06' W 003°19'623.1
2018-Jun-19 11:01N 44°01' W 003°17'1223.3
2018-Jun-19 10:31N 43°49' W 003°13'1122.3
2018-Jun-19 10:00N 43°39' W 003°10'1122.6
2018-Jun-19 09:30N 43°27' W 003°07'713.1
2018-Jun-19 09:00N 43°21' W 003°04'0 0.5
2018-Jun-19 08:30N 43°21' W 003°04'0 0.0
2018-Jun-19 08:00N 43°21' W 003°04'0 0.0
2018-Jun-19 07:30N 43°21' W 003°04'0 0.0
2018-Jun-19 07:00N 43°21' W 003°04'0 0.0
2018-Jun-19 06:30N 43°21' W 003°04'0 0.0
2018-Jun-19 06:00N 43°21' W 003°04'0 0.8
2018-Jun-19 05:30N 43°21' W 003°04'510.5
2018-Jun-19 05:00N 43°26' W 003°07'714.8
2018-Jun-19 04:30N 43°33' W 003°10'714.8
2018-Jun-19 04:00N 43°40' W 003°13'1514.2
2018-Jun-19 02:55N 43°55' W 003°19'26119.8
2018-Jun-18 13:44N 48°04' W 005°11'920.0
2018-Jun-18 13:17N 48°12' W 005°09'620.2
2018-Jun-18 12:59N 48°18' W 005°07'817.4
2018-Jun-18 12:30N 48°26' W 005°03'917.9
2018-Jun-18 12:00N 48°33' W 004°54'1020.6
2018-Jun-18 11:30N 48°40' W 004°42'1019.6
2018-Jun-18 11:00N 48°43' W 004°28'815.7
2018-Jun-18 10:30N 48°45' W 004°16'12 4.6
2018-Jun-18 07:49N 48°43' W 003°58'2 5.1
2018-Jun-18 07:31N 48°45' W 003°56'815.8
2018-Jun-18 06:59N 48°50' W 003°46'816.7
2018-Jun-18 06:30N 48°52' W 003°35'1717.1
2018-Jun-18 05:30N 49°02' W 003°13'918.8
2018-Jun-18 05:00N 49°06' W 003°00'1719.8
2018-Jun-18 04:08N 49°15' W 002°38'319.9
2018-Jun-18 03:59N 49°16' W 002°34'1020.7
2018-Jun-18 03:30N 49°21' W 002°20'7919.2
2018-Jun-17 23:24N 50°26' W 001°12'716.9
2018-Jun-17 23:00N 50°32' W 001°06'816.0
2018-Jun-17 22:30N 50°38' W 000°59'715.0
2018-Jun-17 22:00N 50°45' W 001°05'4 8.0
2018-Jun-17 21:31N 50°49' W 001°06'0 0.0
2018-Jun-17 21:01N 50°49' W 001°06'0 0.0
2018-Jun-17 20:31N 50°49' W 001°06'0 0.0
2018-Jun-17 20:01N 50°49' W 001°06'0 0.0
2018-Jun-17 19:31N 50°49' W 001°06'0 0.0
2018-Jun-17 19:01N 50°49' W 001°06'3 5.0
2018-Jun-17 18:30N 50°46' W 001°05'714.2
2018-Jun-17 18:00N 50°41' W 000°58'1015.9
2018-Jun-17 17:21N 50°33' W 001°08'5217.5
2018-Jun-17 14:24N 50°02' W 002°12'11321.3
2018-Jun-17 09:04N 48°50' W 004°27'220.1
2018-Jun-17 09:00N 48°49' W 004°29'1020.5
2018-Jun-17 08:30N 48°43' W 004°41'918.7
2018-Jun-17 08:00N 48°35' W 004°50'917.0
2018-Jun-17 07:31N 48°27' W 004°50'815.3
2018-Jun-17 07:00N 48°19' W 004°47'918.3
2018-Jun-17 06:30N 48°10' W 004°46'917.2
2018-Jun-17 06:00N 48°02' W 004°46'1123.0
2018-Jun-17 05:31N 47°50' W 004°44'1224.9
2018-Jun-17 05:01N 47°38' W 004°41'2324.9
2018-Jun-17 04:04N 47°15' W 004°34'225.1
2018-Jun-17 04:00N 47°14' W 004°33'21025.0
2018-Jun-16 19:37N 43°46' W 003°48'325.2
2018-Jun-16 19:31N 43°43' W 003°48'12 2.5
2018-Jun-16 14:51N 43°32' W 003°45'1223.2
2018-Jun-16 14:21N 43°43' W 003°48'25023.6
2018-Jun-16 03:45N 47°51' W 004°43'623.1
2018-Jun-16 03:30N 47°56' W 004°45'816.3
2018-Jun-16 03:00N 48°04' W 004°46'1020.7
2018-Jun-16 02:30N 48°14' W 004°46'917.4
2018-Jun-16 02:00N 48°23' W 004°49'815.5
2018-Jun-16 01:30N 48°30' W 004°51'1121.2
2018-Jun-16 01:01N 48°40' W 004°44'8323.6
2018-Jun-15 21:29N 49°42' W 003°20'1123.5
2018-Jun-15 21:00N 49°50' W 003°07'1222.7
2018-Jun-15 20:30N 49°58' W 002°54'1822.4
2018-Jun-15 19:42N 50°05' W 002°28'622.7
2018-Jun-15 19:26N 50°08' W 002°20'4524.1
2018-Jun-15 17:34N 50°30' W 001°19'225.6
2018-Jun-15 17:29N 50°31' W 001°16'1124.1
2018-Jun-15 17:00N 50°36' W 001°00'815.8
2018-Jun-15 16:30N 50°44' W 001°04'510.0
2018-Jun-15 16:01N 50°49' W 001°06'0 0.0
2018-Jun-15 15:31N 50°49' W 001°06'0 0.0
2018-Jun-15 15:01N 50°49' W 001°06'0 0.0
2018-Jun-15 14:30N 50°49' W 001°06'0 0.0
2018-Jun-15 14:01N 50°49' W 001°06'0 0.0
2018-Jun-15 13:31N 50°49' W 001°06'0 0.7
2018-Jun-15 13:01N 50°49' W 001°06'611.2
2018-Jun-15 12:30N 50°43' W 001°04'816.0
2018-Jun-15 12:00N 50°36' W 001°07'1522.0
2018-Jun-15 11:20N 50°25' W 001°24'1223.6
2018-Jun-15 10:49N 50°17' W 001°38'2324.8
2018-Jun-15 09:52N 50°03' W 002°07'1125.5
2018-Jun-15 09:27N 49°58' W 002°21'1225.3
2018-Jun-15 08:58N 49°53' W 002°39'1224.7
2018-Jun-15 08:28N 49°47' W 002°56'8020.7
2018-Jun-15 04:36N 48°52' W 004°25'321.4
2018-Jun-15 04:29N 48°50' W 004°28'1021.7
2018-Jun-15 04:00N 48°43' W 004°39'1122.0
2018-Jun-15 03:30N 48°35' W 004°50'918.1
2018-Jun-15 03:00N 48°26' W 004°50'815.3
2018-Jun-15 02:31N 48°19' W 004°47'1019.3
2018-Jun-15 02:00N 48°09' W 004°46'816.9
2018-Jun-15 01:30N 48°00' W 004°44'1222.1
2018-Jun-15 00:58N 47°49' W 004°39'1122.3
2018-Jun-15 00:30N 47°39' W 004°35'1122.2
2018-Jun-15 00:00N 47°28' W 004°31'1122.5
2018-Jun-14 23:30N 47°17' W 004°28'19424.6
2018-Jun-14 15:37N 44°09' W 003°21'325.6
2018-Jun-14 15:31N 44°06' W 003°20'1325.6
2018-Jun-14 15:00N 43°54' W 003°16'1325.7
2018-Jun-14 14:30N 43°41' W 003°12'1325.5
2018-Jun-14 14:01N 43°29' W 003°07'816.4
2018-Jun-14 13:30N 43°21' W 003°03'1 1.4
2018-Jun-14 13:00N 43°21' W 003°04'0 0.0
2018-Jun-14 12:31N 43°21' W 003°04'0 0.0
2018-Jun-14 12:01N 43°21' W 003°04'0 0.0
2018-Jun-14 11:31N 43°21' W 003°04'0 0.0
2018-Jun-14 11:00N 43°21' W 003°04'0 0.6
2018-Jun-14 10:30N 43°21' W 003°04'611.2
2018-Jun-14 10:01N 43°27' W 003°07'1223.1
2018-Jun-14 09:30N 43°38' W 003°12'1423.2
2018-Jun-14 08:55N 43°51' W 003°17'923.5
2018-Jun-14 08:31N 43°60' W 003°21'18323.0
2018-Jun-14 00:34N 46°55' W 004°39'1923.0
2018-Jun-13 23:43N 47°13' W 004°48'622.9
2018-Jun-13 23:27N 47°19' W 004°50'4423.2
2018-Jun-13 21:32N 48°01' W 005°11'623.4
2018-Jun-13 21:16N 48°07' W 005°11'624.4
2018-Jun-13 21:01N 48°13' W 005°09'1020.1
2018-Jun-13 20:30N 48°23' W 005°06'918.2
2018-Jun-13 20:00N 48°30' W 004°58'1224.1
2018-Jun-13 19:30N 48°39' W 004°46'1223.9
2018-Jun-13 19:00N 48°48' W 004°33'4922.0
2018-Jun-13 16:46N 49°22' W 003°39'621.4
2018-Jun-13 16:27N 49°28' W 003°33'1922.1
2018-Jun-13 15:35N 49°45' W 003°21'223.0
2018-Jun-13 15:31N 49°47' W 003°20'1222.9
2018-Jun-13 15:00N 49°56' W 003°08'1122.2
2018-Jun-13 14:30N 50°01' W 002°54'1324.4
2018-Jun-13 13:58N 50°04' W 002°33'1425.4
2018-Jun-13 13:23N 50°10' W 002°13'1125.9
2018-Jun-13 12:58N 50°16' W 001°58'1428.4
2018-Jun-13 12:28N 50°23' W 001°39'1427.6
2018-Jun-13 11:57N 50°31' W 001°21'1125.7
2018-Jun-13 11:30N 50°38' W 001°06'714.4
2018-Jun-13 11:00N 50°45' W 001°05'4 7.1
2018-Jun-13 10:30N 50°49' W 001°06'0 0.0
2018-Jun-13 10:00N 50°49' W 001°06'0 0.0
2018-Jun-13 09:30N 50°49' W 001°06'0 0.0
2018-Jun-13 09:00N 50°49' W 001°06'0 0.0
2018-Jun-13 08:30N 50°49' W 001°06'0 0.0
2018-Jun-13 08:00N 50°49' W 001°06'2 4.9
2018-Jun-13 07:31N 50°46' W 001°06'714.3
2018-Jun-13 07:00N 50°41' W 000°58'1223.4
2018-Jun-13 06:31N 50°34' W 001°13'1427.3
2018-Jun-13 06:00N 50°26' W 001°30'1326.7
2018-Jun-13 05:31N 50°17' W 001°46'1326.7
2018-Jun-13 05:01N 50°08' W 002°01'2526.3
2018-Jun-13 04:04N 49°54' W 002°33'526.6
2018-Jun-13 03:52N 49°52' W 002°41'1024.6
2018-Jun-13 03:28N 49°49' W 002°55'1020.9
2018-Jun-13 03:00N 49°42' W 003°06'5222.8
2018-Jun-13 00:44N 49°07' W 004°04'1022.6
2018-Jun-13 00:17N 48°60' W 004°15'822.4
2018-Jun-12 23:57N 48°54' W 004°23'1022.5
2018-Jun-12 23:30N 48°47' W 004°33'1122.5
2018-Jun-12 23:01N 48°39' W 004°45'1122.4
2018-Jun-12 22:31N 48°31' W 004°57'917.4
2018-Jun-12 22:00N 48°24' W 005°05'1224.7
2018-Jun-12 21:30N 48°12' W 005°08'1724.0
2018-Jun-12 20:47N 47°55' W 005°05'724.0
2018-Jun-12 20:31N 47°48' W 005°03'23924.0
2018-Jun-12 10:32N 43°60' W 003°20'124.2
2018-Jun-12 10:30N 43°59' W 003°20'1324.1
2018-Jun-12 09:57N 43°46' W 003°15'1123.8
2018-Jun-12 09:30N 43°36' W 003°11'1223.8
2018-Jun-12 09:01N 43°25' W 003°06'4 7.8
2018-Jun-12 08:30N 43°21' W 003°04'0 0.0
2018-Jun-12 08:00N 43°21' W 003°04'0 0.0
2018-Jun-12 07:30N 43°21' W 003°04'0 0.0
2018-Jun-12 07:00N 43°21' W 003°04'0 0.0
2018-Jun-12 06:30N 43°21' W 003°04'0 0.0
2018-Jun-12 06:00N 43°21' W 003°04'1 2.0
2018-Jun-12 05:30N 43°21' W 003°03'815.8
2018-Jun-12 05:01N 43°28' W 003°08'1223.6
2018-Jun-12 04:30N 43°40' W 003°13'1323.7
2018-Jun-12 03:58N 43°52' W 003°14'818.1
2018-Jun-12 03:30N 44°01' W 003°16'  
Track history (hours):
 
Tides and Currents Weather Stations Pressure Air Temp Water Temp Dewpoint Dewpoint Depression Visibility Wind Speed Wind Dir Waves Ship Positions

Cap Finistere

Last reported at 2018-Jun-21 16:49 UTC. Time now 2018-Jun-21 22:03 UTC.
Position N 44°23' W 003°30'.

Length 204 m; draft 6.6 m.

Type: Ship. MMSI: 226318000.

Date/timePositionNaut miles runAvg speedWind from/ knotsBaromVisibWave heightAir tempDewpointWater temp
2018-Jun-21 16:49N 44°23' W 003°30'1225.0
2018-Jun-21 16:20N 44°11' W 003°24'1225.2
2018-Jun-21 15:50N 43°60' W 003°19'1025.3
2018-Jun-21 15:27N 43°50' W 003°16'1125.3
2018-Jun-21 15:01N 43°40' W 003°12'1325.1
2018-Jun-21 14:31N 43°27' W 003°07'713.0
2018-Jun-21 14:00N 43°21' W 003°04'0 0.6
2018-Jun-21 13:30N 43°21' W 003°04'0 0.0
2018-Jun-21 13:00N 43°21' W 003°04'0 0.0
2018-Jun-21 12:30N 43°21' W 003°04'0 0.0
2018-Jun-21 12:00N 43°21' W 003°04'0 0.0
2018-Jun-21 11:30N 43°21' W 003°04'0 0.0
2018-Jun-21 11:00N 43°21' W 003°04'0 0.5
2018-Jun-21 10:30N 43°21' W 003°04'611.5
2018-Jun-21 10:00N 43°27' W 003°07'1223.1
2018-Jun-21 09:30N 43°37' W 003°13'2325.0
2018-Jun-21 08:35N 43°60' W 003°21'225.1
2018-Jun-21 08:30N 44°02' W 003°22'6825.2
2018-Jun-21 05:47N 45°07' W 003°51'725.2
2018-Jun-21 05:30N 45°14' W 003°54'1625.4
2018-Jun-21 04:53N 45°29' W 004°01'1025.6
2018-Jun-21 04:31N 45°38' W 004°05'1325.9
2018-Jun-21 04:01N 45°50' W 004°11'1425.8
2018-Jun-21 03:27N 46°04' W 004°17'1125.5
2018-Jun-21 03:00N 46°15' W 004°22'2325.9
2018-Jun-21 02:07N 46°37' W 004°33'826.3
2018-Jun-21 01:49N 46°44' W 004°35'1126.3
2018-Jun-21 01:24N 46°55' W 004°40'1526.3
2018-Jun-21 00:49N 47°09' W 004°47'5726.6
2018-Jun-20 22:40N 48°04' W 005°12'425.7
2018-Jun-20 22:30N 48°08' W 005°14'1625.6
2018-Jun-20 21:53N 48°23' W 005°21'1021.2
2018-Jun-20 21:24N 48°33' W 005°20'717.3
2018-Jun-20 21:01N 48°38' W 005°13'1121.6
2018-Jun-20 20:31N 48°43' W 004°58'1324.7
2018-Jun-20 20:00N 48°49' W 004°41'7525.2
2018-Jun-20 17:00N 49°42' W 003°20'1425.6
2018-Jun-20 16:29N 49°52' W 003°05'1022.1
2018-Jun-20 16:00N 49°58' W 002°52'5821.2
2018-Jun-20 13:16N 50°25' W 001°31'1120.3
2018-Jun-20 12:44N 50°30' W 001°17'519.6
2018-Jun-20 12:30N 50°32' W 001°11'1019.5
2018-Jun-20 12:00N 50°39' W 000°59'713.8
2018-Jun-20 11:31N 50°45' W 001°05'4 7.7
2018-Jun-20 11:00N 50°49' W 001°06'0 0.0
2018-Jun-20 10:30N 50°49' W 001°06'0 0.0
2018-Jun-20 10:00N 50°49' W 001°06'0 0.0
2018-Jun-20 09:30N 50°49' W 001°06'0 0.0
2018-Jun-20 09:00N 50°49' W 001°06'0 0.0
2018-Jun-20 08:30N 50°49' W 001°06'0 0.2
2018-Jun-20 08:00N 50°49' W 001°06'4 8.5
2018-Jun-20 07:30N 50°45' W 001°04'714.9
2018-Jun-20 07:00N 50°38' W 001°01'1422.3
2018-Jun-20 06:22N 50°28' W 001°18'3323.1
2018-Jun-20 04:56N 50°10' W 002°01'7724.6
2018-Jun-20 01:49N 49°23' W 003°35'2325.1
2018-Jun-20 00:55N 49°07' W 003°60'1425.1
2018-Jun-20 00:21N 48°57' W 004°15'925.1
2018-Jun-19 23:59N 48°51' W 004°25'1225.2
2018-Jun-19 23:30N 48°43' W 004°39'1224.5
2018-Jun-19 23:00N 48°33' W 004°50'816.1
2018-Jun-19 22:31N 48°25' W 004°50'714.8
2018-Jun-19 22:01N 48°18' W 004°47'1223.3
2018-Jun-19 21:31N 48°06' W 004°45'815.2
2018-Jun-19 21:00N 47°59' W 004°44'2924.8
2018-Jun-19 19:51N 47°31' W 004°32'925.0
2018-Jun-19 19:28N 47°22' W 004°29'1225.2
2018-Jun-19 19:01N 47°11' W 004°24'2425.4
2018-Jun-19 18:03N 46°47' W 004°17'125.5
2018-Jun-19 18:00N 46°46' W 004°17'1325.7
2018-Jun-19 17:29N 46°33' W 004°12'1225.9
2018-Jun-19 17:00N 46°21' W 004°08'13924.1
2018-Jun-19 11:16N 44°06' W 003°19'623.1
2018-Jun-19 11:01N 44°01' W 003°17'1223.3
2018-Jun-19 10:31N 43°49' W 003°13'1122.3
2018-Jun-19 10:00N 43°39' W 003°10'1122.6
2018-Jun-19 09:30N 43°27' W 003°07'713.1
2018-Jun-19 09:00N 43°21' W 003°04'0 0.5
2018-Jun-19 08:30N 43°21' W 003°04'0 0.0
2018-Jun-19 08:00N 43°21' W 003°04'0 0.0
2018-Jun-19 07:30N 43°21' W 003°04'0 0.0
2018-Jun-19 07:00N 43°21' W 003°04'0 0.0
2018-Jun-19 06:30N 43°21' W 003°04'0 0.0
2018-Jun-19 06:00N 43°21' W 003°04'0 0.8
2018-Jun-19 05:30N 43°21' W 003°04'510.5
2018-Jun-19 05:00N 43°26' W 003°07'714.8
2018-Jun-19 04:30N 43°33' W 003°10'714.8
2018-Jun-19 04:00N 43°40' W 003°13'1514.2
2018-Jun-19 02:55N 43°55' W 003°19'26119.8
2018-Jun-18 13:44N 48°04' W 005°11'920.0
2018-Jun-18 13:17N 48°12' W 005°09'620.2
2018-Jun-18 12:59N 48°18' W 005°07'817.4
2018-Jun-18 12:30N 48°26' W 005°03'917.9
2018-Jun-18 12:00N 48°33' W 004°54'1020.6
2018-Jun-18 11:30N 48°40' W 004°42'1019.6
2018-Jun-18 11:00N 48°43' W 004°28'815.7
2018-Jun-18 10:30N 48°45' W 004°16'12 4.6
2018-Jun-18 07:49N 48°43' W 003°58'2 5.1
2018-Jun-18 07:31N 48°45' W 003°56'815.8
2018-Jun-18 06:59N 48°50' W 003°46'816.7
2018-Jun-18 06:30N 48°52' W 003°35'1717.1
2018-Jun-18 05:30N 49°02' W 003°13'918.8
2018-Jun-18 05:00N 49°06' W 003°00'1719.8
2018-Jun-18 04:08N 49°15' W 002°38'319.9
2018-Jun-18 03:59N 49°16' W 002°34'1020.7
2018-Jun-18 03:30N 49°21' W 002°20'7919.2
2018-Jun-17 23:24N 50°26' W 001°12'716.9
2018-Jun-17 23:00N 50°32' W 001°06'816.0
2018-Jun-17 22:30N 50°38' W 000°59'715.0
2018-Jun-17 22:00N 50°45' W 001°05'4 8.0
2018-Jun-17 21:31N 50°49' W 001°06'0 0.0
2018-Jun-17 21:01N 50°49' W 001°06'0 0.0
2018-Jun-17 20:31N 50°49' W 001°06'0 0.0
2018-Jun-17 20:01N 50°49' W 001°06'0 0.0
2018-Jun-17 19:31N 50°49' W 001°06'0 0.0
2018-Jun-17 19:01N 50°49' W 001°06'3 5.0
2018-Jun-17 18:30N 50°46' W 001°05'714.2
2018-Jun-17 18:00N 50°41' W 000°58'1015.9
2018-Jun-17 17:21N 50°33' W 001°08'5217.5
2018-Jun-17 14:24N 50°02' W 002°12'11321.3
2018-Jun-17 09:04N 48°50' W 004°27'220.1
2018-Jun-17 09:00N 48°49' W 004°29'1020.5
2018-Jun-17 08:30N 48°43' W 004°41'918.7
2018-Jun-17 08:00N 48°35' W 004°50'917.0
2018-Jun-17 07:31N 48°27' W 004°50'815.3
2018-Jun-17 07:00N 48°19' W 004°47'918.3
2018-Jun-17 06:30N 48°10' W 004°46'917.2
2018-Jun-17 06:00N 48°02' W 004°46'1123.0
2018-Jun-17 05:31N 47°50' W 004°44'1224.9
2018-Jun-17 05:01N 47°38' W 004°41'2324.9
2018-Jun-17 04:04N 47°15' W 004°34'225.1
2018-Jun-17 04:00N 47°14' W 004°33'21025.0
2018-Jun-16 19:37N 43°46' W 003°48'325.2
2018-Jun-16 19:31N 43°43' W 003°48'12 2.5
2018-Jun-16 14:51N 43°32' W 003°45'1223.2
2018-Jun-16 14:21N 43°43' W 003°48'25023.6
2018-Jun-16 03:45N 47°51' W 004°43'623.1
2018-Jun-16 03:30N 47°56' W 004°45'816.3
2018-Jun-16 03:00N 48°04' W 004°46'1020.7
2018-Jun-16 02:30N 48°14' W 004°46'917.4
2018-Jun-16 02:00N 48°23' W 004°49'815.5
2018-Jun-16 01:30N 48°30' W 004°51'1121.2
2018-Jun-16 01:01N 48°40' W 004°44'8323.6
2018-Jun-15 21:29N 49°42' W 003°20'1123.5
2018-Jun-15 21:00N 49°50' W 003°07'1222.7
2018-Jun-15 20:30N 49°58' W 002°54'1822.4
2018-Jun-15 19:42N 50°05' W 002°28'622.7
2018-Jun-15 19:26N 50°08' W 002°20'4524.1
2018-Jun-15 17:34N 50°30' W 001°19'225.6
2018-Jun-15 17:29N 50°31' W 001°16'1124.1
2018-Jun-15 17:00N 50°36' W 001°00'815.8
2018-Jun-15 16:30N 50°44' W 001°04'510.0
2018-Jun-15 16:01N 50°49' W 001°06'0 0.0
2018-Jun-15 15:31N 50°49' W 001°06'0 0.0
2018-Jun-15 15:01N 50°49' W 001°06'0 0.0
2018-Jun-15 14:30N 50°49' W 001°06'0 0.0
2018-Jun-15 14:01N 50°49' W 001°06'0 0.0
2018-Jun-15 13:31N 50°49' W 001°06'0 0.7
2018-Jun-15 13:01N 50°49' W 001°06'611.2
2018-Jun-15 12:30N 50°43' W 001°04'816.0
2018-Jun-15 12:00N 50°36' W 001°07'1522.0
2018-Jun-15 11:20N 50°25' W 001°24'1223.6
2018-Jun-15 10:49N 50°17' W 001°38'2324.8
2018-Jun-15 09:52N 50°03' W 002°07'1125.5
2018-Jun-15 09:27N 49°58' W 002°21'1225.3
2018-Jun-15 08:58N 49°53' W 002°39'1224.7
2018-Jun-15 08:28N 49°47' W 002°56'8020.7
2018-Jun-15 04:36N 48°52' W 004°25'321.4
2018-Jun-15 04:29N 48°50' W 004°28'1021.7
2018-Jun-15 04:00N 48°43' W 004°39'1122.0
2018-Jun-15 03:30N 48°35' W 004°50'918.1
2018-Jun-15 03:00N 48°26' W 004°50'815.3
2018-Jun-15 02:31N 48°19' W 004°47'1019.3
2018-Jun-15 02:00N 48°09' W 004°46'816.9
2018-Jun-15 01:30N 48°00' W 004°44'1222.1
2018-Jun-15 00:58N 47°49' W 004°39'1122.3
2018-Jun-15 00:30N 47°39' W 004°35'1122.2
2018-Jun-15 00:00N 47°28' W 004°31'1122.5
2018-Jun-14 23:30N 47°17' W 004°28'19424.6
2018-Jun-14 15:37N 44°09' W 003°21'325.6
2018-Jun-14 15:31N 44°06' W 003°20'1325.6
2018-Jun-14 15:00N 43°54' W 003°16'1325.7
2018-Jun-14 14:30N 43°41' W 003°12'1325.5
2018-Jun-14 14:01N 43°29' W 003°07'816.4
2018-Jun-14 13:30N 43°21' W 003°03'1 1.4
2018-Jun-14 13:00N 43°21' W 003°04'0 0.0
2018-Jun-14 12:31N 43°21' W 003°04'0 0.0
2018-Jun-14 12:01N 43°21' W 003°04'0 0.0
2018-Jun-14 11:31N 43°21' W 003°04'0 0.0
2018-Jun-14 11:00N 43°21' W 003°04'0 0.6
2018-Jun-14 10:30N 43°21' W 003°04'611.2
2018-Jun-14 10:01N 43°27' W 003°07'1223.1
2018-Jun-14 09:30N 43°38' W 003°12'1423.2
2018-Jun-14 08:55N 43°51' W 003°17'923.5
2018-Jun-14 08:31N 43°60' W 003°21'18323.0
2018-Jun-14 00:34N 46°55' W 004°39'1923.0
2018-Jun-13 23:43N 47°13' W 004°48'622.9
2018-Jun-13 23:27N 47°19' W 004°50'4423.2
2018-Jun-13 21:32N 48°01' W 005°11'623.4
2018-Jun-13 21:16N 48°07' W 005°11'624.4
2018-Jun-13 21:01N 48°13' W 005°09'1020.1
2018-Jun-13 20:30N 48°23' W 005°06'918.2
2018-Jun-13 20:00N 48°30' W 004°58'1224.1
2018-Jun-13 19:30N 48°39' W 004°46'1223.9
2018-Jun-13 19:00N 48°48' W 004°33'4922.0
2018-Jun-13 16:46N 49°22' W 003°39'621.4
2018-Jun-13 16:27N 49°28' W 003°33'1922.1
2018-Jun-13 15:35N 49°45' W 003°21'223.0
2018-Jun-13 15:31N 49°47' W 003°20'1222.9
2018-Jun-13 15:00N 49°56' W 003°08'1122.2
2018-Jun-13 14:30N 50°01' W 002°54'1324.4
2018-Jun-13 13:58N 50°04' W 002°33'1425.4
2018-Jun-13 13:23N 50°10' W 002°13'1125.9
2018-Jun-13 12:58N 50°16' W 001°58'1428.4
2018-Jun-13 12:28N 50°23' W 001°39'1427.6
2018-Jun-13 11:57N 50°31' W 001°21'1125.7
2018-Jun-13 11:30N 50°38' W 001°06'714.4
2018-Jun-13 11:00N 50°45' W 001°05'4 7.1
2018-Jun-13 10:30N 50°49' W 001°06'0 0.0
2018-Jun-13 10:00N 50°49' W 001°06'0 0.0
2018-Jun-13 09:30N 50°49' W 001°06'0 0.0
2018-Jun-13 09:00N 50°49' W 001°06'0 0.0
2018-Jun-13 08:30N 50°49' W 001°06'0 0.0
2018-Jun-13 08:00N 50°49' W 001°06'2 4.9
2018-Jun-13 07:31N 50°46' W 001°06'714.3
2018-Jun-13 07:00N 50°41' W 000°58'1223.4
2018-Jun-13 06:31N 50°34' W 001°13'1427.3
2018-Jun-13 06:00N 50°26' W 001°30'1326.7
2018-Jun-13 05:31N 50°17' W 001°46'1326.7
2018-Jun-13 05:01N 50°08' W 002°01'2526.3
2018-Jun-13 04:04N 49°54' W 002°33'526.6
2018-Jun-13 03:52N 49°52' W 002°41'1024.6
2018-Jun-13 03:28N 49°49' W 002°55'1020.9
2018-Jun-13 03:00N 49°42' W 003°06'5222.8
2018-Jun-13 00:44N 49°07' W 004°04'1022.6
2018-Jun-13 00:17N 48°60' W 004°15'822.4
2018-Jun-12 23:57N 48°54' W 004°23'1022.5
2018-Jun-12 23:30N 48°47' W 004°33'1122.5
2018-Jun-12 23:01N 48°39' W 004°45'1122.4
2018-Jun-12 22:31N 48°31' W 004°57'917.4
2018-Jun-12 22:00N 48°24' W 005°05'1224.7
2018-Jun-12 21:30N 48°12' W 005°08'1724.0
2018-Jun-12 20:47N 47°55' W 005°05'724.0
2018-Jun-12 20:31N 47°48' W 005°03'23924.0
2018-Jun-12 10:32N 43°60' W 003°20'124.2
2018-Jun-12 10:30N 43°59' W 003°20'1324.1
2018-Jun-12 09:57N 43°46' W 003°15'1123.8
2018-Jun-12 09:30N 43°36' W 003°11'1223.8
2018-Jun-12 09:01N 43°25' W 003°06'4 7.8
2018-Jun-12 08:30N 43°21' W 003°04'0 0.0
2018-Jun-12 08:00N 43°21' W 003°04'0 0.0
2018-Jun-12 07:30N 43°21' W 003°04'0 0.0
2018-Jun-12 07:00N 43°21' W 003°04'0 0.0
2018-Jun-12 06:30N 43°21' W 003°04'0 0.0
2018-Jun-12 06:00N 43°21' W 003°04'1 2.0
2018-Jun-12 05:30N 43°21' W 003°03'815.8
2018-Jun-12 05:01N 43°28' W 003°08'1223.6
2018-Jun-12 04:30N 43°40' W 003°13'1323.7
2018-Jun-12 03:58N 43°52' W 003°14'818.1
2018-Jun-12 03:30N 44°01' W 003°16'  

Dump ship's entire track history